createdAt,value
2022-12-01T00:01:10.000Z,20.60
2022-12-01T00:03:37.474Z,20.60
2022-12-01T00:06:09.413Z,20.60
2022-12-01T00:08:36.436Z,20.60
2022-12-01T00:11:08.431Z,20.50
2022-12-01T00:13:35.790Z,20.50
2022-12-01T00:16:12.173Z,20.50
2022-12-01T00:18:39.192Z,20.50
2022-12-01T00:21:06.377Z,20.50
2022-12-01T00:23:33.228Z,20.50
2022-12-01T00:26:06.228Z,20.50
2022-12-01T00:28:33.576Z,20.50
2022-12-01T00:31:00.450Z,20.50
2022-12-01T00:33:27.368Z,20.50
2022-12-01T00:36:01.043Z,20.50
2022-12-01T00:38:28.158Z,20.50
2022-12-01T00:40:55.060Z,20.50
2022-12-01T00:43:22.039Z,20.40
2022-12-01T00:45:49.051Z,20.50
2022-12-01T00:48:16.044Z,20.50
2022-12-01T00:50:43.041Z,20.50
2022-12-01T00:53:09.944Z,20.50
2022-12-01T00:55:37.242Z,20.40
2022-12-01T00:58:04.494Z,20.40
2022-12-01T01:00:31.362Z,20.40
2022-12-01T01:02:58.194Z,20.40
2022-12-01T01:05:25.059Z,20.40
2022-12-01T01:07:51.974Z,20.40
2022-12-01T01:10:18.860Z,20.40
2022-12-01T01:12:45.738Z,20.40
2022-12-01T01:15:12.765Z,20.30
2022-12-01T01:17:39.564Z,20.40
2022-12-01T01:20:06.996Z,20.40
2022-12-01T01:22:35.303Z,20.30
2022-12-01T01:25:02.243Z,20.30
2022-12-01T01:27:29.083Z,20.30
2022-12-01T01:29:55.912Z,20.30
2022-12-01T01:32:23.224Z,20.30
2022-12-01T01:34:50.114Z,20.30
2022-12-01T01:37:16.910Z,20.30
2022-12-01T01:39:43.787Z,20.30
2022-12-01T01:42:13.990Z,20.30
2022-12-01T01:44:50.642Z,20.30
2022-12-01T01:47:29.337Z,20.30
2022-12-01T01:49:58.703Z,20.30
2022-12-01T01:52:26.003Z,20.30
2022-12-01T01:54:54.411Z,20.20
2022-12-01T01:57:27.026Z,20.30
2022-12-01T02:00:14.172Z,20.30
2022-12-01T02:02:46.045Z,20.30
2022-12-01T02:05:28.859Z,20.30
2022-12-01T02:07:57.815Z,20.30
2022-12-01T02:10:33.287Z,20.30
2022-12-01T02:13:05.936Z,20.30
2022-12-01T02:15:59.968Z,20.20
2022-12-01T02:19:00.596Z,20.30
2022-12-01T02:21:45.495Z,20.20
2022-12-01T02:24:42.539Z,20.20
2022-12-01T02:27:30.719Z,20.20
2022-12-01T02:30:07.745Z,20.20
2022-12-01T02:32:40.619Z,20.20
2022-12-01T02:35:45.367Z,20.20
2022-12-01T02:38:30.202Z,20.20
2022-12-01T02:41:12.154Z,20.10
2022-12-01T02:44:17.900Z,20.10
2022-12-01T02:46:48.912Z,20.10
2022-12-01T02:49:18.350Z,20.10
2022-12-01T02:51:45.653Z,20.10
2022-12-01T02:54:14.050Z,20.10
2022-12-01T02:56:41.023Z,20.10
2022-12-01T02:59:12.296Z,20.10
2022-12-01T03:01:56.769Z,20.10
2022-12-01T03:04:45.258Z,20.10
2022-12-01T03:07:49.255Z,20.10
2022-12-01T03:10:25.201Z,20.10
2022-12-01T03:13:01.000Z,20.00
2022-12-01T03:15:38.385Z,20.00
2022-12-01T03:18:31.662Z,20.10
2022-12-01T03:21:13.700Z,20.00
2022-12-01T03:23:44.082Z,20.00
2022-12-01T03:26:16.369Z,20.00
2022-12-01T03:28:47.619Z,20.00
2022-12-01T03:31:20.074Z,20.00
2022-12-01T03:33:52.546Z,20.00
2022-12-01T03:36:40.371Z,20.00
2022-12-01T03:39:11.140Z,20.10
2022-12-01T03:41:43.695Z,20.00
2022-12-01T03:44:25.174Z,20.00
2022-12-01T03:46:53.871Z,20.00
2022-12-01T03:49:21.866Z,20.00
2022-12-01T03:52:15.561Z,20.00
2022-12-01T03:55:19.954Z,20.00
2022-12-01T03:58:03.787Z,20.00
2022-12-01T04:00:31.457Z,20.00
2022-12-01T04:03:02.259Z,20.00
2022-12-01T04:05:29.192Z,20.00
2022-12-01T04:07:56.286Z,19.90
2022-12-01T04:10:23.198Z,20.00
2022-12-01T04:12:50.382Z,20.00
2022-12-01T04:15:17.735Z,20.00
2022-12-01T04:17:45.140Z,20.00
2022-12-01T04:20:15.977Z,20.00
2022-12-01T04:22:42.886Z,20.00
2022-12-01T04:25:10.308Z,19.90
2022-12-01T04:27:37.615Z,20.00
2022-12-01T04:30:06.614Z,20.00
2022-12-01T04:32:41.367Z,20.00
2022-12-01T04:35:10.298Z,20.00
2022-12-01T04:37:37.418Z,19.90
2022-12-01T04:40:05.768Z,19.90
2022-12-01T04:42:32.637Z,20.00
2022-12-01T04:44:59.499Z,19.90
2022-12-01T04:47:26.365Z,20.00
2022-12-01T04:49:53.249Z,20.00
2022-12-01T04:52:20.069Z,20.00
2022-12-01T04:54:46.900Z,20.00
2022-12-01T04:57:13.721Z,19.90
2022-12-01T04:59:40.584Z,20.00
2022-12-01T05:02:07.640Z,20.00
2022-12-01T05:04:38.466Z,19.90
2022-12-01T05:07:06.076Z,20.00
2022-12-01T05:09:33.074Z,19.90
2022-12-01T05:11:59.875Z,19.90
2022-12-01T05:14:26.799Z,19.90
2022-12-01T05:16:55.039Z,20.00
2022-12-01T05:19:40.368Z,19.90
2022-12-01T05:22:07.203Z,19.90
2022-12-01T05:24:34.056Z,19.90
2022-12-01T05:27:00.896Z,19.90
2022-12-01T05:29:27.734Z,19.90
2022-12-01T05:31:54.628Z,19.90
2022-12-01T05:34:21.530Z,19.90
2022-12-01T05:36:48.323Z,19.90
2022-12-01T05:39:15.295Z,19.80
2022-12-01T05:41:42.144Z,19.80
2022-12-01T05:44:08.971Z,19.90
2022-12-01T05:46:35.866Z,19.80
2022-12-01T05:49:02.679Z,19.80
2022-12-01T05:51:29.557Z,19.80
2022-12-01T05:53:59.238Z,19.80
2022-12-01T05:56:26.195Z,19.80
2022-12-01T05:58:53.003Z,19.80
2022-12-01T06:01:19.922Z,19.80
2022-12-01T06:03:46.818Z,19.80
2022-12-01T06:06:13.808Z,19.80
2022-12-01T06:08:40.645Z,19.80
2022-12-01T06:11:07.476Z,19.80
2022-12-01T06:13:34.451Z,19.80
2022-12-01T06:16:03.867Z,19.80
2022-12-01T06:18:32.648Z,19.80
2022-12-01T06:20:59.476Z,19.80
2022-12-01T06:23:30.207Z,19.80
2022-12-01T06:25:57.852Z,19.80
2022-12-01T06:28:24.744Z,19.80
2022-12-01T06:30:51.628Z,19.80
2022-12-01T06:33:18.544Z,19.80
2022-12-01T06:35:45.348Z,19.80
2022-12-01T06:38:12.315Z,19.70
2022-12-01T06:40:39.155Z,19.70
2022-12-01T06:43:06.467Z,19.70
2022-12-01T06:45:33.403Z,19.70
2022-12-01T06:48:00.340Z,19.70
2022-12-01T06:50:27.639Z,19.70
2022-12-01T06:52:55.124Z,19.70
2022-12-01T06:55:22.139Z,19.70
2022-12-01T06:57:49.406Z,19.70
2022-12-01T07:00:17.179Z,19.70
2022-12-01T07:02:44.795Z,19.70
2022-12-01T07:05:11.703Z,19.70
2022-12-01T07:07:39.649Z,19.70
2022-12-01T07:10:08.041Z,19.70
2022-12-01T07:12:35.023Z,19.70
2022-12-01T07:15:02.182Z,19.70
2022-12-01T07:17:29.729Z,19.70
2022-12-01T07:19:56.981Z,19.70
2022-12-01T07:22:28.147Z,19.70
2022-12-01T07:24:57.943Z,19.60
2022-12-01T07:27:24.810Z,19.60
2022-12-01T07:29:51.798Z,19.60
2022-12-01T07:32:18.875Z,19.60
2022-12-01T07:34:45.790Z,19.60
2022-12-01T07:37:12.748Z,19.60
2022-12-01T07:39:39.666Z,19.60
2022-12-01T07:42:06.597Z,19.60
2022-12-01T07:44:33.518Z,19.60
2022-12-01T07:47:00.385Z,19.50
2022-12-01T07:49:27.386Z,19.50
2022-12-01T07:51:54.268Z,19.50
2022-12-01T07:54:21.364Z,19.40
2022-12-01T07:56:48.307Z,19.50
2022-12-01T07:59:15.224Z,19.40
2022-12-01T08:01:44.633Z,19.40
2022-12-01T08:04:12.471Z,19.40
2022-12-01T08:06:39.349Z,19.40
2022-12-01T08:09:06.337Z,19.40
2022-12-01T08:11:33.272Z,19.40
2022-12-01T08:14:00.160Z,19.30
2022-12-01T08:16:27.064Z,19.30
2022-12-01T08:18:54.196Z,19.30
2022-12-01T08:21:22.535Z,19.30
2022-12-01T08:23:53.226Z,19.30
2022-12-01T08:26:20.801Z,19.20
2022-12-01T08:28:48.379Z,19.20
2022-12-01T08:31:22.899Z,19.20
2022-12-01T08:33:50.790Z,19.30
2022-12-01T08:36:18.147Z,19.30
2022-12-01T08:38:45.372Z,19.30
2022-12-01T08:41:13.058Z,19.30
2022-12-01T08:43:57.197Z,19.30
2022-12-01T08:46:26.080Z,19.30
2022-12-01T08:48:55.092Z,19.30
2022-12-01T08:51:22.021Z,19.30
2022-12-01T08:53:50.093Z,19.30
2022-12-01T08:56:22.842Z,19.30
2022-12-01T08:58:51.116Z,19.40
2022-12-01T09:01:18.819Z,19.40
2022-12-01T09:03:46.275Z,19.40
2022-12-01T09:06:20.807Z,19.40
2022-12-01T09:08:48.115Z,19.30
2022-12-01T09:11:17.594Z,19.20
2022-12-01T09:13:53.000Z,19.30
2022-12-01T09:16:21.638Z,19.30
2022-12-01T09:18:48.740Z,19.40
2022-12-01T09:21:26.339Z,19.40
2022-12-01T09:23:53.782Z,19.50
2022-12-01T09:26:20.978Z,19.60
2022-12-01T09:28:54.827Z,19.60
2022-12-01T09:31:23.581Z,19.70
2022-12-01T09:34:20.314Z,19.80
2022-12-01T09:36:47.737Z,19.90
2022-12-01T09:39:17.294Z,19.90
2022-12-01T09:41:56.354Z,19.90
2022-12-01T09:44:53.643Z,20.00
2022-12-01T09:47:31.950Z,20.10
2022-12-01T09:50:11.029Z,20.10
2022-12-01T09:52:48.000Z,20.20
2022-12-01T09:55:17.699Z,20.20
2022-12-01T09:57:47.928Z,20.30
2022-12-01T10:00:26.503Z,20.30
2022-12-01T10:03:07.004Z,20.40
2022-12-01T10:09:12.595Z,20.60
2022-12-01T10:11:41.812Z,20.60
2022-12-01T10:14:20.092Z,20.60
2022-12-01T10:17:03.831Z,20.60
2022-12-01T10:19:48.507Z,20.60
2022-12-01T10:22:19.785Z,20.70
2022-12-01T10:24:52.760Z,20.80
2022-12-01T10:27:42.220Z,20.80
2022-12-01T10:30:18.499Z,20.90
2022-12-01T10:32:58.267Z,20.90
2022-12-01T10:35:32.106Z,21.00
2022-12-01T10:38:05.252Z,21.10
2022-12-01T10:40:35.207Z,21.10
2022-12-01T10:43:02.628Z,21.20
2022-12-01T10:45:34.723Z,21.20
2022-12-01T10:48:15.326Z,21.30
2022-12-01T10:50:49.954Z,21.40
2022-12-01T10:53:22.752Z,21.40
2022-12-01T10:56:03.042Z,21.40
2022-12-01T10:58:32.893Z,21.40
2022-12-01T11:01:03.856Z,21.40
2022-12-01T11:03:34.074Z,21.40
2022-12-01T11:06:02.715Z,21.50
2022-12-01T11:08:43.732Z,21.50
2022-12-01T11:11:28.610Z,21.50
2022-12-01T11:13:57.044Z,21.60
2022-12-01T11:16:54.094Z,21.50
2022-12-01T11:19:34.860Z,21.60
2022-12-01T11:22:17.555Z,21.60
2022-12-01T11:25:05.451Z,21.60
2022-12-01T11:27:51.716Z,21.70
2022-12-01T11:30:29.428Z,21.70
2022-12-01T11:32:59.443Z,21.70
2022-12-01T11:35:35.109Z,21.70
2022-12-01T11:38:28.697Z,21.80
2022-12-01T11:40:58.085Z,21.70
2022-12-01T11:43:32.368Z,21.70
2022-12-01T11:46:05.963Z,21.80
2022-12-01T11:48:37.390Z,21.80
2022-12-01T11:51:07.401Z,21.80
2022-12-01T11:53:40.242Z,21.90
2022-12-01T11:56:12.900Z,21.90
2022-12-01T11:58:40.200Z,21.90
2022-12-01T12:01:44.729Z,21.90
2022-12-01T12:04:20.669Z,21.90
2022-12-01T12:07:21.137Z,21.90
2022-12-01T12:09:57.192Z,22.00
2022-12-01T12:12:33.099Z,21.90
2022-12-01T12:15:18.453Z,21.90
2022-12-01T12:18:14.574Z,21.90
2022-12-01T12:20:56.558Z,22.00
2022-12-01T12:23:53.538Z,21.90
2022-12-01T12:26:21.435Z,22.00
2022-12-01T12:29:33.779Z,21.90
2022-12-01T12:32:18.848Z,22.00
2022-12-01T12:34:54.405Z,21.90
2022-12-01T12:37:31.302Z,21.90
2022-12-01T12:40:04.287Z,22.00
2022-12-01T12:42:56.241Z,22.00
2022-12-01T12:45:41.121Z,22.00
2022-12-01T12:48:29.463Z,22.00
2022-12-01T12:51:27.392Z,22.00
2022-12-01T12:54:00.285Z,22.00
2022-12-01T12:56:30.273Z,21.90
2022-12-01T12:58:58.412Z,21.90
2022-12-01T13:01:38.891Z,21.90
2022-12-01T13:04:11.969Z,22.00
2022-12-01T13:07:04.042Z,21.90
2022-12-01T13:09:43.947Z,22.00
2022-12-01T13:12:35.787Z,22.00
2022-12-01T13:15:15.449Z,21.90
2022-12-01T13:17:45.258Z,21.90
2022-12-01T13:20:18.166Z,21.90
2022-12-01T13:22:46.102Z,21.90
2022-12-01T13:25:15.158Z,22.00
2022-12-01T13:27:43.616Z,22.00
2022-12-01T13:30:22.287Z,22.00
2022-12-01T13:32:49.683Z,22.00
2022-12-01T13:35:25.302Z,21.90
2022-12-01T13:37:52.843Z,22.00
2022-12-01T13:40:23.916Z,22.00
2022-12-01T13:43:10.385Z,22.00
2022-12-01T13:45:38.992Z,22.00
2022-12-01T13:48:06.855Z,21.90
2022-12-01T13:50:43.653Z,22.00
2022-12-01T13:53:12.794Z,21.90
2022-12-01T13:56:08.009Z,21.90
2022-12-01T13:58:34.826Z,21.90
2022-12-01T14:01:19.995Z,21.90
2022-12-01T14:04:03.698Z,21.90
2022-12-01T14:06:46.692Z,21.90
2022-12-01T14:09:33.019Z,21.90
2022-12-01T14:12:18.935Z,21.90
2022-12-01T14:15:01.945Z,21.90
2022-12-01T14:17:34.222Z,21.90
2022-12-01T14:20:08.460Z,21.80
2022-12-01T14:22:38.927Z,21.80
2022-12-01T14:25:21.155Z,21.90
2022-12-01T14:27:50.850Z,21.80
2022-12-01T14:30:44.380Z,21.80
2022-12-01T14:33:39.344Z,21.80
2022-12-01T14:36:24.527Z,21.80
2022-12-01T14:38:54.577Z,21.80
2022-12-01T14:41:28.015Z,21.70
2022-12-01T14:44:10.767Z,21.70
2022-12-01T14:46:45.180Z,21.70
2022-12-01T14:49:17.865Z,21.70
2022-12-01T14:51:47.108Z,21.70
2022-12-01T14:54:18.594Z,21.70
2022-12-01T14:56:47.503Z,21.60
2022-12-01T14:59:20.999Z,21.60
2022-12-01T15:01:50.996Z,21.60
2022-12-01T15:04:18.012Z,21.60
2022-12-01T15:06:45.386Z,21.60
2022-12-01T15:09:36.233Z,21.60
2022-12-01T15:12:09.460Z,21.70
2022-12-01T15:14:49.625Z,21.60
2022-12-01T15:17:31.064Z,21.60
2022-12-01T15:19:58.563Z,21.70
2022-12-01T15:22:30.361Z,21.60
2022-12-01T15:25:14.500Z,21.60
2022-12-01T15:27:43.738Z,21.70
2022-12-01T15:30:13.635Z,21.60
2022-12-01T15:32:45.589Z,21.60
2022-12-01T15:35:20.329Z,21.50
2022-12-01T15:37:47.372Z,21.50
2022-12-01T15:43:14.945Z,21.60
2022-12-01T15:45:57.583Z,21.60
2022-12-01T15:48:33.276Z,21.60
2022-12-01T15:51:20.258Z,21.60
2022-12-01T15:53:50.825Z,21.60
2022-12-01T15:56:32.256Z,21.60
2022-12-01T15:59:08.378Z,21.60
2022-12-01T16:01:36.383Z,21.60
2022-12-01T16:04:15.802Z,21.60
2022-12-01T16:06:42.771Z,21.60
2022-12-01T16:09:23.876Z,21.50
2022-12-01T16:12:16.212Z,21.60
2022-12-01T16:15:03.389Z,21.60
2022-12-01T16:17:44.351Z,21.60
2022-12-01T16:20:22.934Z,21.50
2022-12-01T16:23:01.647Z,21.50
2022-12-01T16:25:42.070Z,21.50
2022-12-01T16:28:24.796Z,21.50
2022-12-01T16:30:52.298Z,21.50
2022-12-01T16:33:22.772Z,21.50
2022-12-01T16:35:50.321Z,21.50
2022-12-01T16:38:22.702Z,21.50
2022-12-01T16:40:54.018Z,21.50
2022-12-01T16:43:23.455Z,21.50
2022-12-01T16:45:53.328Z,21.50
2022-12-01T16:48:20.382Z,21.50
2022-12-01T16:50:51.255Z,21.50
2022-12-01T16:53:20.583Z,21.50
2022-12-01T16:55:55.625Z,21.50
2022-12-01T16:58:23.120Z,21.50
2022-12-01T17:00:52.785Z,21.50
2022-12-01T17:03:21.737Z,21.50
2022-12-01T17:05:48.731Z,21.50
2022-12-01T17:08:16.662Z,21.50
2022-12-01T17:10:45.296Z,21.50
2022-12-01T17:13:12.589Z,21.50
2022-12-01T17:15:48.052Z,21.50
2022-12-01T17:18:16.946Z,21.50
2022-12-01T17:20:43.814Z,21.50
2022-12-01T17:23:11.505Z,21.50
2022-12-01T17:25:42.026Z,21.50
2022-12-01T17:28:08.879Z,21.50
2022-12-01T17:30:36.745Z,21.50
2022-12-01T17:33:03.705Z,21.50
2022-12-01T17:35:30.568Z,21.50
2022-12-01T17:37:57.413Z,21.50
2022-12-01T17:40:24.330Z,21.50
2022-12-01T17:42:51.261Z,21.50
2022-12-01T17:45:18.802Z,21.50
2022-12-01T17:47:45.829Z,21.50
2022-12-01T17:50:12.742Z,21.50
2022-12-01T17:52:39.659Z,21.50
2022-12-01T17:55:07.148Z,21.50
2022-12-01T17:57:34.241Z,21.50
2022-12-01T18:00:01.889Z,21.50
2022-12-01T18:02:35.470Z,21.50
2022-12-01T18:05:02.496Z,21.50
2022-12-01T18:07:29.478Z,21.50
2022-12-01T18:09:56.368Z,21.50
2022-12-01T18:12:23.199Z,21.50
2022-12-01T18:14:50.354Z,21.50
2022-12-01T18:17:17.510Z,21.50
2022-12-01T18:19:44.531Z,21.50
2022-12-01T18:22:11.389Z,21.50
2022-12-01T18:24:38.296Z,21.50
2022-12-01T18:27:05.516Z,21.50
2022-12-01T18:29:32.385Z,21.50
2022-12-01T18:32:00.449Z,21.50
2022-12-01T18:34:29.569Z,21.50
2022-12-01T18:36:56.431Z,21.50
2022-12-01T18:39:23.534Z,21.50
2022-12-01T18:41:50.546Z,21.40
2022-12-01T18:44:17.414Z,21.40
2022-12-01T18:46:44.603Z,21.40
2022-12-01T18:49:12.482Z,21.50
2022-12-01T18:51:39.904Z,21.50
2022-12-01T18:54:08.579Z,21.50
2022-12-01T18:56:35.659Z,21.50
2022-12-01T18:59:07.662Z,21.50
2022-12-01T19:01:36.955Z,21.50
2022-12-01T19:04:04.589Z,21.50
2022-12-01T19:06:33.299Z,21.50
2022-12-01T19:09:01.596Z,21.50
2022-12-01T19:11:28.892Z,21.50
2022-12-01T19:13:56.680Z,21.50
2022-12-01T19:16:23.836Z,21.50
2022-12-01T19:18:50.975Z,21.60
2022-12-01T19:21:19.211Z,21.50
2022-12-01T19:23:46.761Z,21.50
2022-12-01T19:26:16.324Z,21.50
2022-12-01T19:28:45.433Z,21.50
2022-12-01T19:31:19.872Z,21.50
2022-12-01T19:33:47.259Z,21.50
2022-12-01T19:36:16.885Z,21.50
2022-12-01T19:38:44.644Z,21.50
2022-12-01T19:41:12.015Z,21.40
2022-12-01T19:43:39.196Z,21.50
2022-12-01T19:46:11.415Z,21.50
2022-12-01T19:48:38.714Z,21.40
2022-12-01T19:51:05.750Z,21.50
2022-12-01T19:53:34.087Z,21.40
2022-12-01T19:56:02.383Z,21.40
2022-12-01T19:58:29.773Z,21.40
2022-12-01T20:01:03.712Z,21.40
2022-12-01T20:03:30.585Z,21.40
2022-12-01T20:06:05.335Z,21.40
2022-12-01T20:08:35.690Z,21.40
2022-12-01T20:11:04.312Z,21.40
2022-12-01T20:13:32.832Z,21.30
2022-12-01T20:16:10.066Z,21.30
2022-12-01T20:18:37.471Z,21.30
2022-12-01T20:21:27.906Z,21.30
2022-12-01T20:23:58.085Z,21.40
2022-12-01T20:26:30.435Z,21.30
2022-12-01T20:29:07.402Z,21.30
2022-12-01T20:31:34.782Z,21.30
2022-12-01T20:34:04.841Z,21.30
2022-12-01T20:36:32.065Z,21.30
2022-12-01T20:38:59.041Z,21.30
2022-12-01T20:41:25.898Z,21.30
2022-12-01T20:43:52.788Z,21.30
2022-12-01T20:46:19.898Z,21.30
2022-12-01T20:48:46.769Z,21.30
2022-12-01T20:51:14.372Z,21.30
2022-12-01T20:53:50.715Z,21.30
2022-12-01T20:56:28.584Z,21.30
2022-12-01T20:58:55.545Z,21.30
2022-12-01T21:01:22.758Z,21.30
2022-12-01T21:03:51.006Z,21.30
2022-12-01T21:06:18.657Z,21.30
2022-12-01T21:08:47.121Z,21.30
2022-12-01T21:11:46.200Z,21.30
2022-12-01T21:14:15.208Z,21.30
2022-12-01T21:16:42.590Z,21.20
2022-12-01T21:19:17.972Z,21.10
2022-12-01T21:21:44.912Z,21.10
2022-12-01T21:24:14.702Z,21.10
2022-12-01T21:26:58.139Z,21.10
2022-12-01T21:29:27.328Z,21.10
2022-12-01T21:31:55.201Z,21.10
2022-12-01T21:34:27.127Z,21.00
2022-12-01T21:36:59.977Z,21.00
2022-12-01T21:39:27.688Z,21.00
2022-12-01T21:41:56.869Z,21.00
2022-12-01T21:44:23.990Z,21.00
2022-12-01T21:46:55.296Z,21.00
2022-12-01T21:49:31.818Z,20.90
2022-12-01T21:51:58.847Z,20.90
2022-12-01T21:54:25.690Z,21.00
2022-12-01T21:56:55.983Z,20.90
2022-12-01T21:59:23.573Z,21.00
2022-12-01T22:01:57.601Z,21.00
2022-12-01T22:04:33.677Z,21.00
2022-12-01T22:07:01.240Z,21.00
2022-12-01T22:09:36.142Z,21.00
2022-12-01T22:12:28.216Z,21.00
2022-12-01T22:15:00.814Z,21.00
2022-12-01T22:17:28.178Z,21.00
2022-12-01T22:20:01.115Z,21.00
2022-12-01T22:22:29.377Z,21.00
2022-12-01T22:25:12.960Z,20.90
2022-12-01T22:27:40.333Z,21.00
2022-12-01T22:30:07.403Z,20.90
2022-12-01T22:32:42.054Z,20.90
2022-12-01T22:35:23.807Z,20.90
2022-12-01T22:37:58.339Z,20.90
2022-12-01T22:40:32.070Z,20.90
2022-12-01T22:43:20.835Z,20.90
2022-12-01T22:45:50.309Z,20.90
2022-12-01T22:48:45.749Z,20.90
2022-12-01T22:51:26.733Z,20.90
2022-12-01T22:54:02.021Z,20.90
2022-12-01T22:56:34.327Z,20.90
2022-12-01T22:59:02.019Z,20.90
2022-12-01T23:01:31.171Z,20.90
2022-12-01T23:04:34.350Z,20.90
2022-12-01T23:07:27.826Z,20.90
2022-12-01T23:09:57.298Z,20.90
2022-12-01T23:12:34.601Z,20.80
2022-12-01T23:15:21.196Z,20.90
2022-12-01T23:17:49.006Z,20.90
2022-12-01T23:20:30.506Z,20.80
2022-12-01T23:23:00.178Z,20.80
2022-12-01T23:25:28.080Z,20.80
2022-12-01T23:27:58.477Z,20.80
2022-12-01T23:30:25.558Z,20.80
2022-12-01T23:33:12.861Z,20.80
2022-12-01T23:35:51.866Z,20.90
2022-12-01T23:38:22.485Z,20.80
2022-12-01T23:40:50.257Z,20.80
2022-12-01T23:43:29.234Z,20.80
2022-12-01T23:46:06.158Z,20.80
2022-12-01T23:48:45.768Z,20.80
2022-12-01T23:51:19.938Z,20.80
2022-12-01T23:53:46.899Z,20.80
2022-12-01T23:56:18.368Z,20.70
2022-12-01T23:58:45.795Z,20.80
